sensor_id;sensor_type;location;lat;lon;timestamp;temperature;humidity
71082;SHT31;58740;50.672;18.690;2023-06-14T00:02:03;13.16;68.42
71082;SHT31;58740;50.672;18.690;2023-06-14T00:04:31;13.15;68.55
71082;SHT31;58740;50.672;18.690;2023-06-14T00:06:59;13.10;68.62
71082;SHT31;58740;50.672;18.690;2023-06-14T00:09:27;13.08;68.68
71082;SHT31;58740;50.672;18.690;2023-06-14T00:11:55;13.08;68.74
71082;SHT31;58740;50.672;18.690;2023-06-14T00:14:22;13.09;68.77
71082;SHT31;58740;50.672;18.690;2023-06-14T00:16:50;13.09;68.88
71082;SHT31;58740;50.672;18.690;2023-06-14T00:19:19;13.12;68.86
71082;SHT31;58740;50.672;18.690;2023-06-14T00:21:48;13.17;68.67
71082;SHT31;58740;50.672;18.690;2023-06-14T00:24:16;13.21;68.64
71082;SHT31;58740;50.672;18.690;2023-06-14T00:26:44;13.23;68.68
71082;SHT31;58740;50.672;18.690;2023-06-14T00:29:11;13.22;68.86
71082;SHT31;58740;50.672;18.690;2023-06-14T00:31:39;13.21;69.02
71082;SHT31;58740;50.672;18.690;2023-06-14T00:34:07;13.19;69.13
71082;SHT31;58740;50.672;18.690;2023-06-14T00:36:36;13.18;68.97
71082;SHT31;58740;50.672;18.690;2023-06-14T00:39:04;13.19;69.13
71082;SHT31;58740;50.672;18.690;2023-06-14T00:41:32;13.20;69.15
71082;SHT31;58740;50.672;18.690;2023-06-14T00:44:00;13.20;69.16
71082;SHT31;58740;50.672;18.690;2023-06-14T00:46:27;13.20;69.18
71082;SHT31;58740;50.672;18.690;2023-06-14T00:48:56;13.21;69.29
71082;SHT31;58740;50.672;18.690;2023-06-14T00:51:25;13.25;69.26
71082;SHT31;58740;50.672;18.690;2023-06-14T00:53:53;13.27;69.34
71082;SHT31;58740;50.672;18.690;2023-06-14T00:56:22;13.29;69.53
71082;SHT31;58740;50.672;18.690;2023-06-14T00:58:50;13.29;69.61
71082;SHT31;58740;50.672;18.690;2023-06-14T01:01:19;13.31;69.77
71082;SHT31;58740;50.672;18.690;2023-06-14T01:03:47;13.32;69.69
71082;SHT31;58740;50.672;18.690;2023-06-14T01:06:22;13.32;69.96
71082;SHT31;58740;50.672;18.690;2023-06-14T01:09:18;13.32;70.23
71082;SHT31;58740;50.672;18.690;2023-06-14T01:12:11;13.34;70.12
71082;SHT31;58740;50.672;18.690;2023-06-14T01:14:48;13.34;70.10
71082;SHT31;58740;50.672;18.690;2023-06-14T01:17:18;13.36;70.14
71082;SHT31;58740;50.672;18.690;2023-06-14T01:19:46;13.38;70.25
71082;SHT31;58740;50.672;18.690;2023-06-14T01:22:14;13.38;70.41
71082;SHT31;58740;50.672;18.690;2023-06-14T01:24:42;13.39;70.51
71082;SHT31;58740;50.672;18.690;2023-06-14T01:27:12;13.37;70.54
71082;SHT31;58740;50.672;18.690;2023-06-14T01:29:43;13.40;70.68
71082;SHT31;58740;50.672;18.690;2023-06-14T01:32:13;13.40;71.06
71082;SHT31;58740;50.672;18.690;2023-06-14T01:34:41;13.40;71.05
71082;SHT31;58740;50.672;18.690;2023-06-14T01:37:10;13.43;71.17
71082;SHT31;58740;50.672;18.690;2023-06-14T01:39:40;13.45;71.22
71082;SHT31;58740;50.672;18.690;2023-06-14T01:42:11;13.46;71.30
71082;SHT31;58740;50.672;18.690;2023-06-14T01:44:41;13.45;71.32
71082;SHT31;58740;50.672;18.690;2023-06-14T01:47:12;13.47;71.52
71082;SHT31;58740;50.672;18.690;2023-06-14T01:49:41;13.47;71.53
71082;SHT31;58740;50.672;18.690;2023-06-14T01:52:09;13.50;71.61
71082;SHT31;58740;50.672;18.690;2023-06-14T01:54:38;13.51;71.66
71082;SHT31;58740;50.672;18.690;2023-06-14T01:57:09;13.54;71.77
71082;SHT31;58740;50.672;18.690;2023-06-14T01:59:38;13.57;71.63
71082;SHT31;58740;50.672;18.690;2023-06-14T02:02:05;13.57;71.69
71082;SHT31;58740;50.672;18.690;2023-06-14T02:04:33;13.55;71.87
71082;SHT31;58740;50.672;18.690;2023-06-14T02:07:01;13.57;71.86
71082;SHT31;58740;50.672;18.690;2023-06-14T02:09:29;13.57;71.84
71082;SHT31;58740;50.672;18.690;2023-06-14T02:11:57;13.57;71.78
71082;SHT31;58740;50.672;18.690;2023-06-14T02:14:24;13.53;71.79
71082;SHT31;58740;50.672;18.690;2023-06-14T02:16:53;13.51;71.99
71082;SHT31;58740;50.672;18.690;2023-06-14T02:19:22;13.51;72.19
71082;SHT31;58740;50.672;18.690;2023-06-14T02:21:49;13.51;72.04
71082;SHT31;58740;50.672;18.690;2023-06-14T02:24:17;13.53;71.94
71082;SHT31;58740;50.672;18.690;2023-06-14T02:26:45;13.54;71.90
71082;SHT31;58740;50.672;18.690;2023-06-14T02:29:13;13.56;72.07
71082;SHT31;58740;50.672;18.690;2023-06-14T02:31:42;13.56;72.03
71082;SHT31;58740;50.672;18.690;2023-06-14T02:34:10;13.57;72.18
71082;SHT31;58740;50.672;18.690;2023-06-14T02:36:38;13.58;72.16
71082;SHT31;58740;50.672;18.690;2023-06-14T02:39:09;13.58;72.16
71082;SHT31;58740;50.672;18.690;2023-06-14T02:41:38;13.58;72.14
71082;SHT31;58740;50.672;18.690;2023-06-14T02:44:06;13.55;72.30
71082;SHT31;58740;50.672;18.690;2023-06-14T02:46:34;13.55;72.37
71082;SHT31;58740;50.672;18.690;2023-06-14T02:49:02;13.55;72.53
71082;SHT31;58740;50.672;18.690;2023-06-14T02:51:30;13.57;72.51
71082;SHT31;58740;50.672;18.690;2023-06-14T02:53:58;13.56;72.54
71082;SHT31;58740;50.672;18.690;2023-06-14T02:56:25;13.56;72.70
71082;SHT31;58740;50.672;18.690;2023-06-14T02:58:53;13.57;72.81
71082;SHT31;58740;50.672;18.690;2023-06-14T03:01:21;13.57;72.88
71082;SHT31;58740;50.672;18.690;2023-06-14T03:03:50;13.56;72.97
71082;SHT31;58740;50.672;18.690;2023-06-14T03:06:18;13.57;72.97
71082;SHT31;58740;50.672;18.690;2023-06-14T03:08:46;13.58;72.94
71082;SHT31;58740;50.672;18.690;2023-06-14T03:11:16;13.59;73.12
71082;SHT31;58740;50.672;18.690;2023-06-14T03:13:47;13.58;73.15
71082;SHT31;58740;50.672;18.690;2023-06-14T03:16:15;13.58;73.12
71082;SHT31;58740;50.672;18.690;2023-06-14T03:18:45;13.58;73.23
71082;SHT31;58740;50.672;18.690;2023-06-14T03:21:13;13.57;73.37
71082;SHT31;58740;50.672;18.690;2023-06-14T03:23:43;13.57;73.43
71082;SHT31;58740;50.672;18.690;2023-06-14T03:26:12;13.55;73.49
71082;SHT31;58740;50.672;18.690;2023-06-14T03:28:42;13.55;73.33
71082;SHT31;58740;50.672;18.690;2023-06-14T03:31:09;13.53;73.40
71082;SHT31;58740;50.672;18.690;2023-06-14T03:33:37;13.54;73.42
71082;SHT31;58740;50.672;18.690;2023-06-14T03:36:06;13.53;73.42
71082;SHT31;58740;50.672;18.690;2023-06-14T03:38:34;13.52;73.52
71082;SHT31;58740;50.672;18.690;2023-06-14T03:41:02;13.52;73.63
71082;SHT31;58740;50.672;18.690;2023-06-14T03:43:30;13.51;73.84
71082;SHT31;58740;50.672;18.690;2023-06-14T03:45:58;13.52;73.93
71082;SHT31;58740;50.672;18.690;2023-06-14T03:48:25;13.54;73.98
71082;SHT31;58740;50.672;18.690;2023-06-14T03:50:53;13.55;74.01
71082;SHT31;58740;50.672;18.690;2023-06-14T03:53:25;13.56;74.05
71082;SHT31;58740;50.672;18.690;2023-06-14T03:55:55;13.58;74.02
71082;SHT31;58740;50.672;18.690;2023-06-14T03:58:24;13.59;74.18
71082;SHT31;58740;50.672;18.690;2023-06-14T04:00:52;13.61;74.30
71082;SHT31;58740;50.672;18.690;2023-06-14T04:03:19;13.62;74.28
71082;SHT31;58740;50.672;18.690;2023-06-14T04:05:52;13.62;74.16
71082;SHT31;58740;50.672;18.690;2023-06-14T04:08:24;13.60;74.15
71082;SHT31;58740;50.672;18.690;2023-06-14T04:10:52;13.62;74.29
71082;SHT31;58740;50.672;18.690;2023-06-14T04:13:20;13.63;74.29
71082;SHT31;58740;50.672;18.690;2023-06-14T04:15:48;13.65;74.39
71082;SHT31;58740;50.672;18.690;2023-06-14T04:18:15;13.64;74.51
71082;SHT31;58740;50.672;18.690;2023-06-14T04:20:43;13.66;74.40
71082;SHT31;58740;50.672;18.690;2023-06-14T04:23:14;13.67;74.33
71082;SHT31;58740;50.672;18.690;2023-06-14T04:25:45;13.67;74.44
71082;SHT31;58740;50.672;18.690;2023-06-14T04:28:14;13.69;74.31
71082;SHT31;58740;50.672;18.690;2023-06-14T04:30:43;13.71;74.38
71082;SHT31;58740;50.672;18.690;2023-06-14T04:33:12;13.69;74.42
71082;SHT31;58740;50.672;18.690;2023-06-14T04:35:41;13.70;74.47
71082;SHT31;58740;50.672;18.690;2023-06-14T04:38:09;13.72;74.43
71082;SHT31;58740;50.672;18.690;2023-06-14T04:40:37;13.73;74.44
71082;SHT31;58740;50.672;18.690;2023-06-14T04:43:10;13.70;74.63
71082;SHT31;58740;50.672;18.690;2023-06-14T04:45:39;13.69;74.64
71082;SHT31;58740;50.672;18.690;2023-06-14T04:48:07;13.68;74.88
71082;SHT31;58740;50.672;18.690;2023-06-14T04:50:37;13.67;74.83
71082;SHT31;58740;50.672;18.690;2023-06-14T04:53:08;13.71;74.96
71082;SHT31;58740;50.672;18.690;2023-06-14T04:55:36;13.72;74.94
71082;SHT31;58740;50.672;18.690;2023-06-14T04:58:04;13.73;74.94
71082;SHT31;58740;50.672;18.690;2023-06-14T05:00:32;13.75;74.98
71082;SHT31;58740;50.672;18.690;2023-06-14T05:03:00;13.74;74.98
71082;SHT31;58740;50.672;18.690;2023-06-14T05:05:28;13.73;75.07
71082;SHT31;58740;50.672;18.690;2023-06-14T05:07:56;13.68;75.24
71082;SHT31;58740;50.672;18.690;2023-06-14T05:10:24;13.66;75.21
71082;SHT31;58740;50.672;18.690;2023-06-14T05:12:52;13.67;75.24
71082;SHT31;58740;50.672;18.690;2023-06-14T05:15:20;13.69;75.39
71082;SHT31;58740;50.672;18.690;2023-06-14T05:17:52;13.70;75.63
71082;SHT31;58740;50.672;18.690;2023-06-14T05:20:23;13.74;75.73
71082;SHT31;58740;50.672;18.690;2023-06-14T05:22:52;13.75;76.04
71082;SHT31;58740;50.672;18.690;2023-06-14T05:25:21;13.77;76.04
71082;SHT31;58740;50.672;18.690;2023-06-14T05:27:49;13.79;76.04
71082;SHT31;58740;50.672;18.690;2023-06-14T05:30:17;13.81;76.04
71082;SHT31;58740;50.672;18.690;2023-06-14T05:32:48;13.82;76.15
71082;SHT31;58740;50.672;18.690;2023-06-14T05:35:16;13.80;76.37
71082;SHT31;58740;50.672;18.690;2023-06-14T05:37:44;13.76;76.52
71082;SHT31;58740;50.672;18.690;2023-06-14T05:40:12;13.76;76.52
71082;SHT31;58740;50.672;18.690;2023-06-14T05:42:40;13.78;76.45
71082;SHT31;58740;50.672;18.690;2023-06-14T05:45:08;13.77;76.66
71082;SHT31;58740;50.672;18.690;2023-06-14T05:47:36;13.73;76.64
71082;SHT31;58740;50.672;18.690;2023-06-14T05:50:04;13.72;76.42
71082;SHT31;58740;50.672;18.690;2023-06-14T05:52:33;13.73;76.49
71082;SHT31;58740;50.672;18.690;2023-06-14T05:55:03;13.77;76.57
71082;SHT31;58740;50.672;18.690;2023-06-14T05:57:32;13.81;76.47
71082;SHT31;58740;50.672;18.690;2023-06-14T06:00:00;13.85;76.51
71082;SHT31;58740;50.672;18.690;2023-06-14T06:02:28;13.87;76.50
71082;SHT31;58740;50.672;18.690;2023-06-14T06:04:56;13.92;76.54
71082;SHT31;58740;50.672;18.690;2023-06-14T06:07:23;13.94;76.46
71082;SHT31;58740;50.672;18.690;2023-06-14T06:09:53;13.91;76.39
71082;SHT31;58740;50.672;18.690;2023-06-14T06:12:20;13.88;76.28
71082;SHT31;58740;50.672;18.690;2023-06-14T06:14:48;13.89;76.36
71082;SHT31;58740;50.672;18.690;2023-06-14T06:17:16;13.92;76.43
71082;SHT31;58740;50.672;18.690;2023-06-14T06:19:44;13.95;76.46
71082;SHT31;58740;50.672;18.690;2023-06-14T06:22:12;13.96;76.34
71082;SHT31;58740;50.672;18.690;2023-06-14T06:24:40;14.00;76.22
71082;SHT31;58740;50.672;18.690;2023-06-14T06:27:10;14.01;76.14
71082;SHT31;58740;50.672;18.690;2023-06-14T06:29:41;13.99;76.18
71082;SHT31;58740;50.672;18.690;2023-06-14T06:32:14;13.97;76.02
71082;SHT31;58740;50.672;18.690;2023-06-14T06:34:43;13.97;76.02
71082;SHT31;58740;50.672;18.690;2023-06-14T06:37:11;13.98;76.15
71082;SHT31;58740;50.672;18.690;2023-06-14T06:39:39;13.99;76.10
71082;SHT31;58740;50.672;18.690;2023-06-14T06:42:06;14.00;76.02
71082;SHT31;58740;50.672;18.690;2023-06-14T06:44:34;14.04;75.91
71082;SHT31;58740;50.672;18.690;2023-06-14T06:47:02;14.07;75.79
71082;SHT31;58740;50.672;18.690;2023-06-14T06:49:30;14.06;75.61
71082;SHT31;58740;50.672;18.690;2023-06-14T06:51:59;14.04;75.60
71082;SHT31;58740;50.672;18.690;2023-06-14T06:54:29;14.04;75.63
71082;SHT31;58740;50.672;18.690;2023-06-14T06:56:58;14.05;75.59
71082;SHT31;58740;50.672;18.690;2023-06-14T06:59:26;14.04;75.71
71082;SHT31;58740;50.672;18.690;2023-06-14T07:01:53;14.04;75.71
71082;SHT31;58740;50.672;18.690;2023-06-14T07:04:21;14.04;75.66
71082;SHT31;58740;50.672;18.690;2023-06-14T07:06:49;14.07;75.77
71082;SHT31;58740;50.672;18.690;2023-06-14T07:09:19;14.08;75.77
71082;SHT31;58740;50.672;18.690;2023-06-14T07:11:47;14.13;76.01
71082;SHT31;58740;50.672;18.690;2023-06-14T07:14:15;14.15;76.06
71082;SHT31;58740;50.672;18.690;2023-06-14T07:16:43;14.19;76.15
71082;SHT31;58740;50.672;18.690;2023-06-14T07:19:11;14.20;76.20
71082;SHT31;58740;50.672;18.690;2023-06-14T07:21:38;14.24;76.51
71082;SHT31;58740;50.672;18.690;2023-06-14T07:24:06;14.28;76.49
71082;SHT31;58740;50.672;18.690;2023-06-14T07:26:35;14.33;76.43
71082;SHT31;58740;50.672;18.690;2023-06-14T07:29:03;14.35;76.68
71082;SHT31;58740;50.672;18.690;2023-06-14T07:31:31;14.37;76.64
71082;SHT31;58740;50.672;18.690;2023-06-14T07:33:58;14.39;76.50
71082;SHT31;58740;50.672;18.690;2023-06-14T07:36:26;14.41;76.64
71082;SHT31;58740;50.672;18.690;2023-06-14T07:38:54;14.43;76.86
71082;SHT31;58740;50.672;18.690;2023-06-14T07:41:22;14.43;76.86
71082;SHT31;58740;50.672;18.690;2023-06-14T07:43:50;14.45;77.00
71082;SHT31;58740;50.672;18.690;2023-06-14T07:46:18;14.46;76.68
71082;SHT31;58740;50.672;18.690;2023-06-14T07:48:46;14.48;76.61
71082;SHT31;58740;50.672;18.690;2023-06-14T07:51:14;14.46;76.58
71082;SHT31;58740;50.672;18.690;2023-06-14T07:53:42;14.44;76.68
71082;SHT31;58740;50.672;18.690;2023-06-14T07:56:10;14.44;76.75
71082;SHT31;58740;50.672;18.690;2023-06-14T07:58:37;14.42;76.81
71082;SHT31;58740;50.672;18.690;2023-06-14T08:01:05;14.38;76.87
71082;SHT31;58740;50.672;18.690;2023-06-14T08:03:35;14.35;76.93
71082;SHT31;58740;50.672;18.690;2023-06-14T08:06:03;14.31;77.18
71082;SHT31;58740;50.672;18.690;2023-06-14T08:08:31;14.29;77.29
71082;SHT31;58740;50.672;18.690;2023-06-14T08:10:59;14.30;77.37
71082;SHT31;58740;50.672;18.690;2023-06-14T08:13:27;14.31;77.63
71082;SHT31;58740;50.672;18.690;2023-06-14T08:15:55;14.33;77.53
71082;SHT31;58740;50.672;18.690;2023-06-14T08:18:24;14.33;77.33
71082;SHT31;58740;50.672;18.690;2023-06-14T08:20:52;14.38;77.60
71082;SHT31;58740;50.672;18.690;2023-06-14T08:23:21;14.43;77.51
71082;SHT31;58740;50.672;18.690;2023-06-14T08:25:49;14.43;77.22
71082;SHT31;58740;50.672;18.690;2023-06-14T08:28:17;14.40;77.06
71082;SHT31;58740;50.672;18.690;2023-06-14T08:30:44;14.37;77.30
71082;SHT31;58740;50.672;18.690;2023-06-14T08:33:12;14.40;77.53
71082;SHT31;58740;50.672;18.690;2023-06-14T08:35:43;14.43;77.55
71082;SHT31;58740;50.672;18.690;2023-06-14T08:38:12;14.44;77.38
71082;SHT31;58740;50.672;18.690;2023-06-14T08:40:40;14.44;77.13
71082;SHT31;58740;50.672;18.690;2023-06-14T08:43:27;14.46;77.21
71082;SHT31;58740;50.672;18.690;2023-06-14T08:45:57;14.48;77.45
71082;SHT31;58740;50.672;18.690;2023-06-14T08:48:30;14.54;77.65
71082;SHT31;58740;50.672;18.690;2023-06-14T08:50:59;14.58;77.70
71082;SHT31;58740;50.672;18.690;2023-06-14T08:53:31;14.64;77.72
71082;SHT31;58740;50.672;18.690;2023-06-14T08:56:05;14.66;77.40
71082;SHT31;58740;50.672;18.690;2023-06-14T08:58:35;14.69;77.50
71082;SHT31;58740;50.672;18.690;2023-06-14T09:01:03;14.69;77.22
71082;SHT31;58740;50.672;18.690;2023-06-14T09:03:32;14.70;77.42
71082;SHT31;58740;50.672;18.690;2023-06-14T09:06:00;14.69;77.48
71082;SHT31;58740;50.672;18.690;2023-06-14T09:08:29;14.71;77.19
71082;SHT31;58740;50.672;18.690;2023-06-14T09:10:58;14.71;77.19
71082;SHT31;58740;50.672;18.690;2023-06-14T09:13:26;14.71;77.17
71082;SHT31;58740;50.672;18.690;2023-06-14T09:15:58;14.73;77.15
71082;SHT31;58740;50.672;18.690;2023-06-14T09:18:38;14.72;77.27
71082;SHT31;58740;50.672;18.690;2023-06-14T09:21:11;14.73;77.25
71082;SHT31;58740;50.672;18.690;2023-06-14T09:23:43;14.74;77.20
71082;SHT31;58740;50.672;18.690;2023-06-14T09:26:14;14.75;77.16
71082;SHT31;58740;50.672;18.690;2023-06-14T09:28:45;14.72;77.23
71082;SHT31;58740;50.672;18.690;2023-06-14T09:31:16;14.70;77.33
71082;SHT31;58740;50.672;18.690;2023-06-14T09:33:47;14.69;77.56
71082;SHT31;58740;50.672;18.690;2023-06-14T09:36:18;14.71;77.71
71082;SHT31;58740;50.672;18.690;2023-06-14T09:41:30;14.79;77.73
71082;SHT31;58740;50.672;18.690;2023-06-14T09:44:03;14.80;77.58
71082;SHT31;58740;50.672;18.690;2023-06-14T09:46:38;14.84;77.70
71082;SHT31;58740;50.672;18.690;2023-06-14T09:49:06;14.91;77.93
71082;SHT31;58740;50.672;18.690;2023-06-14T09:51:35;15.00;77.83
71082;SHT31;58740;50.672;18.690;2023-06-14T09:54:15;15.09;77.87
71082;SHT31;58740;50.672;18.690;2023-06-14T09:56:44;15.16;77.92
71082;SHT31;58740;50.672;18.690;2023-06-14T09:59:14;15.26;77.92
71082;SHT31;58740;50.672;18.690;2023-06-14T10:01:57;15.38;78.00
71082;SHT31;58740;50.672;18.690;2023-06-14T10:04:28;15.49;78.04
71082;SHT31;58740;50.672;18.690;2023-06-14T10:06:58;15.57;77.61
71082;SHT31;58740;50.672;18.690;2023-06-14T10:09:30;15.63;77.29
71082;SHT31;58740;50.672;18.690;2023-06-14T10:12:00;15.68;77.00
71082;SHT31;58740;50.672;18.690;2023-06-14T10:14:29;15.72;77.18
71082;SHT31;58740;50.672;18.690;2023-06-14T10:17:07;15.71;76.68
71082;SHT31;58740;50.672;18.690;2023-06-14T10:19:42;15.66;76.56
71082;SHT31;58740;50.672;18.690;2023-06-14T10:22:22;15.65;76.45
71082;SHT31;58740;50.672;18.690;2023-06-14T10:24:59;15.65;76.60
71082;SHT31;58740;50.672;18.690;2023-06-14T10:27:29;15.66;76.66
71082;SHT31;58740;50.672;18.690;2023-06-14T10:32:29;15.68;76.45
71082;SHT31;58740;50.672;18.690;2023-06-14T10:35:01;15.68;76.26
71082;SHT31;58740;50.672;18.690;2023-06-14T10:37:36;15.69;76.07
71082;SHT31;58740;50.672;18.690;2023-06-14T10:40:04;15.72;76.33
71082;SHT31;58740;50.672;18.690;2023-06-14T10:42:36;15.74;76.14
71082;SHT31;58740;50.672;18.690;2023-06-14T10:45:04;15.76;76.29
71082;SHT31;58740;50.672;18.690;2023-06-14T10:47:33;15.79;75.94
71082;SHT31;58740;50.672;18.690;2023-06-14T10:50:04;15.81;75.94
71082;SHT31;58740;50.672;18.690;2023-06-14T10:52:34;15.84;75.71
71082;SHT31;58740;50.672;18.690;2023-06-14T10:55:15;15.85;75.50
71082;SHT31;58740;50.672;18.690;2023-06-14T10:57:51;15.85;75.77
71082;SHT31;58740;50.672;18.690;2023-06-14T11:00:27;15.89;75.59
71082;SHT31;58740;50.672;18.690;2023-06-14T11:03:11;15.91;75.13
71082;SHT31;58740;50.672;18.690;2023-06-14T11:06:21;15.95;75.06
71082;SHT31;58740;50.672;18.690;2023-06-14T11:11:59;15.96;74.35
71082;SHT31;58740;50.672;18.690;2023-06-14T11:14:33;15.99;74.36
71082;SHT31;58740;50.672;18.690;2023-06-14T11:17:01;16.01;74.11
71082;SHT31;58740;50.672;18.690;2023-06-14T11:19:29;16.04;74.39
71082;SHT31;58740;50.672;18.690;2023-06-14T11:21:57;16.07;74.32
71082;SHT31;58740;50.672;18.690;2023-06-14T11:24:24;16.08;73.92
71082;SHT31;58740;50.672;18.690;2023-06-14T11:26:52;16.11;73.69
71082;SHT31;58740;50.672;18.690;2023-06-14T11:29:20;16.14;73.48
71082;SHT31;58740;50.672;18.690;2023-06-14T11:31:49;16.16;73.84
71082;SHT31;58740;50.672;18.690;2023-06-14T11:34:18;16.18;73.50
71082;SHT31;58740;50.672;18.690;2023-06-14T11:36:47;16.18;73.40
71082;SHT31;58740;50.672;18.690;2023-06-14T11:39:15;16.20;73.54
71082;SHT31;58740;50.672;18.690;2023-06-14T11:41:43;16.21;73.27
71082;SHT31;58740;50.672;18.690;2023-06-14T11:44:12;16.20;73.41
71082;SHT31;58740;50.672;18.690;2023-06-14T11:46:40;16.19;73.46
71082;SHT31;58740;50.672;18.690;2023-06-14T11:49:09;16.20;73.63
71082;SHT31;58740;50.672;18.690;2023-06-14T11:51:37;16.19;73.28
71082;SHT31;58740;50.672;18.690;2023-06-14T11:54:06;16.14;72.98
71082;SHT31;58740;50.672;18.690;2023-06-14T11:56:36;16.11;73.28
71082;SHT31;58740;50.672;18.690;2023-06-14T11:59:04;16.12;73.38
71082;SHT31;58740;50.672;18.690;2023-06-14T12:01:35;16.11;73.48
71082;SHT31;58740;50.672;18.690;2023-06-14T12:04:07;16.14;73.57
71082;SHT31;58740;50.672;18.690;2023-06-14T12:06:36;16.13;73.36
71082;SHT31;58740;50.672;18.690;2023-06-14T12:09:07;16.12;73.45
71082;SHT31;58740;50.672;18.690;2023-06-14T12:11:40;16.15;73.58
71082;SHT31;58740;50.672;18.690;2023-06-14T12:14:08;16.16;73.31
71082;SHT31;58740;50.672;18.690;2023-06-14T12:16:37;16.16;73.07
71082;SHT31;58740;50.672;18.690;2023-06-14T12:21:47;16.18;73.16
71082;SHT31;58740;50.672;18.690;2023-06-14T12:24:17;16.20;73.10
71082;SHT31;58740;50.672;18.690;2023-06-14T12:26:45;16.21;72.99
71082;SHT31;58740;50.672;18.690;2023-06-14T12:29:14;16.22;72.73
71082;SHT31;58740;50.672;18.690;2023-06-14T12:31:42;16.22;72.78
71082;SHT31;58740;50.672;18.690;2023-06-14T12:34:10;16.24;72.93
71082;SHT31;58740;50.672;18.690;2023-06-14T12:36:38;16.26;72.91
71082;SHT31;58740;50.672;18.690;2023-06-14T12:39:12;16.26;72.40
71082;SHT31;58740;50.672;18.690;2023-06-14T12:41:40;16.26;72.45
71082;SHT31;58740;50.672;18.690;2023-06-14T12:44:10;16.26;72.79
71082;SHT31;58740;50.672;18.690;2023-06-14T12:46:40;16.27;72.81
71082;SHT31;58740;50.672;18.690;2023-06-14T12:49:10;16.28;72.55
71082;SHT31;58740;50.672;18.690;2023-06-14T12:51:39;16.31;72.48
71082;SHT31;58740;50.672;18.690;2023-06-14T12:54:08;16.32;72.43
71082;SHT31;58740;50.672;18.690;2023-06-14T12:56:36;16.31;72.22
71082;SHT31;58740;50.672;18.690;2023-06-14T12:59:04;16.32;72.21
71082;SHT31;58740;50.672;18.690;2023-06-14T13:01:33;16.31;72.16
71082;SHT31;58740;50.672;18.690;2023-06-14T13:04:01;16.30;72.24
71082;SHT31;58740;50.672;18.690;2023-06-14T13:06:29;16.31;72.41
71082;SHT31;58740;50.672;18.690;2023-06-14T13:08:59;16.32;72.55
71082;SHT31;58740;50.672;18.690;2023-06-14T13:11:28;16.34;72.60
71082;SHT31;58740;50.672;18.690;2023-06-14T13:13:56;16.36;72.16
71082;SHT31;58740;50.672;18.690;2023-06-14T13:16:23;16.35;72.06
71082;SHT31;58740;50.672;18.690;2023-06-14T13:18:51;16.35;72.20
71082;SHT31;58740;50.672;18.690;2023-06-14T13:21:19;16.34;72.15
71082;SHT31;58740;50.672;18.690;2023-06-14T13:23:47;16.35;72.16
71082;SHT31;58740;50.672;18.690;2023-06-14T13:26:15;16.36;72.11
71082;SHT31;58740;50.672;18.690;2023-06-14T13:28:45;16.36;72.02
71082;SHT31;58740;50.672;18.690;2023-06-14T13:31:13;16.37;72.23
71082;SHT31;58740;50.672;18.690;2023-06-14T13:33:41;16.38;72.47
71082;SHT31;58740;50.672;18.690;2023-06-14T13:36:09;16.39;72.37
71082;SHT31;58740;50.672;18.690;2023-06-14T13:38:37;16.37;72.21
71082;SHT31;58740;50.672;18.690;2023-06-14T13:41:05;16.33;72.27
71082;SHT31;58740;50.672;18.690;2023-06-14T13:43:33;16.30;72.36
71082;SHT31;58740;50.672;18.690;2023-06-14T13:46:01;16.27;72.19
71082;SHT31;58740;50.672;18.690;2023-06-14T13:48:29;16.26;72.48
71082;SHT31;58740;50.672;18.690;2023-06-14T13:50:59;16.27;72.52
71082;SHT31;58740;50.672;18.690;2023-06-14T13:53:28;16.30;72.60
71082;SHT31;58740;50.672;18.690;2023-06-14T13:55:56;16.30;72.89
71082;SHT31;58740;50.672;18.690;2023-06-14T13:58:24;16.29;73.06
71082;SHT31;58740;50.672;18.690;2023-06-14T14:00:51;16.31;73.36
71082;SHT31;58740;50.672;18.690;2023-06-14T14:03:20;16.31;72.92
71082;SHT31;58740;50.672;18.690;2023-06-14T14:05:48;16.31;72.69
71082;SHT31;58740;50.672;18.690;2023-06-14T14:08:15;16.30;72.50
71082;SHT31;58740;50.672;18.690;2023-06-14T14:10:43;16.31;72.24
71082;SHT31;58740;50.672;18.690;2023-06-14T14:13:11;16.31;72.42
71082;SHT31;58740;50.672;18.690;2023-06-14T14:15:40;16.33;72.63
71082;SHT31;58740;50.672;18.690;2023-06-14T14:18:08;16.34;72.34
71082;SHT31;58740;50.672;18.690;2023-06-14T14:20:36;16.34;72.79
71082;SHT31;58740;50.672;18.690;2023-06-14T14:23:04;16.33;73.28
71082;SHT31;58740;50.672;18.690;2023-06-14T14:25:33;16.36;73.25
71082;SHT31;58740;50.672;18.690;2023-06-14T14:28:01;16.37;73.15
71082;SHT31;58740;50.672;18.690;2023-06-14T14:30:29;16.39;73.05
71082;SHT31;58740;50.672;18.690;2023-06-14T14:32:56;16.40;73.30
71082;SHT31;58740;50.672;18.690;2023-06-14T14:35:24;16.40;72.83
71082;SHT31;58740;50.672;18.690;2023-06-14T14:37:58;16.43;72.65
71082;SHT31;58740;50.672;18.690;2023-06-14T14:40:26;16.43;70.97
71082;SHT31;58740;50.672;18.690;2023-06-14T14:42:54;16.44;71.36
71082;SHT31;58740;50.672;18.690;2023-06-14T14:45:22;16.46;71.11
71082;SHT31;58740;50.672;18.690;2023-06-14T14:47:50;16.48;70.94
71082;SHT31;58740;50.672;18.690;2023-06-14T14:50:19;16.52;71.04
71082;SHT31;58740;50.672;18.690;2023-06-14T14:52:47;16.55;71.16
71082;SHT31;58740;50.672;18.690;2023-06-14T14:55:15;16.59;71.22
71082;SHT31;58740;50.672;18.690;2023-06-14T14:57:45;16.62;71.16
71082;SHT31;58740;50.672;18.690;2023-06-14T15:00:14;16.64;71.37
71082;SHT31;58740;50.672;18.690;2023-06-14T15:02:44;16.67;71.49
71082;SHT31;58740;50.672;18.690;2023-06-14T15:05:12;16.69;71.52
71082;SHT31;58740;50.672;18.690;2023-06-14T15:07:40;16.71;71.26
71082;SHT31;58740;50.672;18.690;2023-06-14T15:10:07;16.71;71.19
71082;SHT31;58740;50.672;18.690;2023-06-14T15:12:36;16.71;71.66
71082;SHT31;58740;50.672;18.690;2023-06-14T15:15:04;16.70;71.95
71082;SHT31;58740;50.672;18.690;2023-06-14T15:17:32;16.72;72.08
71082;SHT31;58740;50.672;18.690;2023-06-14T15:20:00;16.74;71.98
71082;SHT31;58740;50.672;18.690;2023-06-14T15:22:28;16.75;71.85
71082;SHT31;58740;50.672;18.690;2023-06-14T15:24:56;16.77;71.79
71082;SHT31;58740;50.672;18.690;2023-06-14T15:27:28;16.78;71.24
71082;SHT31;58740;50.672;18.690;2023-06-14T15:29:56;16.77;70.46
71082;SHT31;58740;50.672;18.690;2023-06-14T15:32:24;16.77;70.07
71082;SHT31;58740;50.672;18.690;2023-06-14T15:34:51;16.76;70.04
71082;SHT31;58740;50.672;18.690;2023-06-14T15:37:19;16.77;70.25
71082;SHT31;58740;50.672;18.690;2023-06-14T15:39:47;16.79;70.29